Time;durP1;ratioP1;P1;durP2;ratioP2;P2;SDS_P1;SDS_P2;PMS_P1;PMS_P2;Temp;Humidity;BMP_temperature;BMP_pressure;BME280_temperature;BME280_humidity;BME280_pressure;Samples;Min_cycle;Max_cycle;Signal;HPM_P1;HPM_P2
2023/12/03 00:00:02;;;;;;;14.77;10.20;;;-4.50;99.90;;;;;;5092631;28;20253;-68
2023/12/03 00:02:29;;;;;;;16.93;10.63;;;-4.40;99.90;;;;;;5092527;28;20663;-68
2023/12/03 00:04:58;;;;;;;15.90;10.90;;;-4.50;99.90;;;;;;5092739;28;20224;-68
2023/12/03 00:07:25;;;;;;;14.80;10.33;;;-4.50;99.90;;;;;;5095607;28;20196;-68
2023/12/03 00:09:51;;;;;;;14.93;10.17;;;-4.50;99.90;;;;;;5096686;28;20256;-67
2023/12/03 00:12:18;;;;;;;16.50;10.77;;;-4.50;99.90;;;;;;5096560;28;20192;-68
2023/12/03 00:14:45;;;;;;;15.93;10.27;;;-4.50;99.90;;;;;;5096324;28;20196;-68
2023/12/03 00:17:11;;;;;;;17.70;11.00;;;-4.50;99.90;;;;;;5096702;28;20196;-68
2023/12/03 00:19:39;;;;;;;17.43;11.47;;;-4.50;99.90;;;;;;5096551;28;20196;-68
2023/12/03 00:22:07;;;;;;;18.23;10.93;;;-4.50;99.90;;;;;;5096493;28;20200;-69
2023/12/03 00:24:34;;;;;;;17.27;11.37;;;-4.50;99.90;;;;;;5096296;28;20215;-68
2023/12/03 00:27:01;;;;;;;17.77;11.40;;;-4.50;99.90;;;;;;5096324;28;20196;-68
2023/12/03 00:29:27;;;;;;;17.93;11.70;;;-4.50;99.90;;;;;;5096423;28;20196;-68
2023/12/03 00:31:54;;;;;;;22.70;13.67;;;-4.50;99.90;;;;;;5096177;28;20710;-68
2023/12/03 00:34:21;;;;;;;19.43;12.97;;;-4.40;99.90;;;;;;5096292;28;20196;-68
2023/12/03 00:36:47;;;;;;;19.20;12.07;;;-4.40;99.90;;;;;;5096117;28;20192;-69
2023/12/03 00:39:15;;;;;;;18.50;13.07;;;-4.50;99.90;;;;;;5096036;28;20241;-68
2023/12/03 00:41:42;;;;;;;20.10;13.00;;;-4.40;99.90;;;;;;5095850;28;20678;-68
2023/12/03 00:44:08;;;;;;;20.10;12.83;;;-4.50;99.90;;;;;;5096018;28;20249;-68
2023/12/03 00:46:35;;;;;;;22.17;13.83;;;-4.50;99.90;;;;;;5096028;28;20196;-68
2023/12/03 00:49:02;;;;;;;19.70;12.50;;;-4.40;99.90;;;;;;5096026;28;20192;-69
2023/12/03 00:51:28;;;;;;;20.70;13.80;;;-4.40;99.90;;;;;;5095967;28;20200;-68
2023/12/03 00:53:55;;;;;;;20.37;12.83;;;-4.50;99.90;;;;;;5095871;28;20200;-68
2023/12/03 00:56:23;;;;;;;21.60;13.73;;;-4.40;99.90;;;;;;5095706;28;20211;-68
2023/12/03 00:58:50;;;;;;;20.67;12.73;;;-4.40;99.90;;;;;;5095932;28;20249;-68
2023/12/03 01:01:16;;;;;;;23.93;13.97;;;-4.40;99.90;;;;;;5095800;28;20254;-68
2023/12/03 01:03:43;;;;;;;21.53;13.43;;;-4.40;99.90;;;;;;5095789;28;20196;-69
2023/12/03 01:06:09;;;;;;;21.80;14.43;;;-4.40;99.90;;;;;;5095489;28;20223;-69
2023/12/03 01:08:36;;;;;;;21.40;14.37;;;-4.40;99.90;;;;;;5095490;28;20200;-69
2023/12/03 01:11:04;;;;;;;23.17;14.43;;;-4.40;99.90;;;;;;5095459;28;20200;-69
2023/12/03 01:13:32;;;;;;;22.00;14.53;;;-4.40;99.90;;;;;;5095351;28;20201;-69
2023/12/03 01:16:00;;;;;;;24.10;15.07;;;-4.40;99.90;;;;;;5095268;28;20277;-69
2023/12/03 01:18:27;;;;;;;24.50;15.67;;;-4.30;99.90;;;;;;5094391;28;20196;-69
2023/12/03 01:20:53;;;;;;;21.93;13.50;;;-4.30;99.90;;;;;;5095324;28;20204;-69
2023/12/03 01:23:20;;;;;;;24.37;15.40;;;-4.30;99.90;;;;;;5095155;28;20200;-69
2023/12/03 01:25:46;;;;;;;24.60;15.93;;;-4.30;99.90;;;;;;5095324;28;20289;-68
2023/12/03 01:28:16;;;;;;;25.30;16.27;;;-4.30;99.90;;;;;;5095279;28;20196;-69
2023/12/03 01:30:44;;;;;;;24.57;15.40;;;-4.30;99.90;;;;;;5095182;28;20200;-69
2023/12/03 01:33:11;;;;;;;23.53;15.70;;;-4.20;99.90;;;;;;5095115;28;20192;-68
2023/12/03 01:35:37;;;;;;;23.03;15.90;;;-4.20;99.90;;;;;;5094980;28;20200;-68
2023/12/03 01:38:04;;;;;;;24.17;16.03;;;-4.20;99.90;;;;;;5094893;28;20204;-68
2023/12/03 01:40:30;;;;;;;26.43;15.40;;;-4.20;99.90;;;;;;5094849;28;20609;-68
2023/12/03 01:42:57;;;;;;;20.93;13.13;;;-4.20;99.90;;;;;;5094766;28;20670;-68
2023/12/03 01:45:24;;;;;;;21.20;12.87;;;-4.20;99.90;;;;;;5094785;28;20216;-68
2023/12/03 01:47:52;;;;;;;22.73;14.13;;;-4.20;99.90;;;;;;5094766;28;20251;-68
2023/12/03 01:50:20;;;;;;;20.63;14.13;;;-4.20;99.90;;;;;;5094620;28;20208;-69
2023/12/03 01:52:47;;;;;;;20.23;13.40;;;-4.20;99.90;;;;;;5094869;28;20261;-68
2023/12/03 01:55:17;;;;;;;18.17;12.70;;;-4.20;99.90;;;;;;5094575;28;20709;-68
2023/12/03 01:57:44;;;;;;;20.60;13.33;;;-4.20;99.90;;;;;;5094586;28;20678;-69
2023/12/03 02:00:12;;;;;;;21.40;13.67;;;-4.20;99.90;;;;;;5094620;28;20274;-68
2023/12/03 02:02:39;;;;;;;16.53;11.60;;;-4.20;99.90;;;;;;5094525;28;20262;-68
2023/12/03 02:05:08;;;;;;;17.07;11.97;;;-4.30;99.90;;;;;;5094248;28;20226;-69
2023/12/03 02:07:34;;;;;;;18.03;12.07;;;-4.20;99.90;;;;;;5094552;28;20198;-68
2023/12/03 02:10:01;;;;;;;16.80;11.03;;;-4.20;99.90;;;;;;5094467;28;20209;-70
2023/12/03 02:12:28;;;;;;;17.30;10.93;;;-4.30;99.90;;;;;;5094333;28;20207;-68
2023/12/03 02:14:55;;;;;;;19.00;11.93;;;-4.30;99.90;;;;;;5094024;28;20713;-68
2023/12/03 02:17:21;;;;;;;16.97;10.90;;;-4.30;99.90;;;;;;5094164;28;20314;-67
2023/12/03 02:19:48;;;;;;;17.37;10.97;;;-4.30;99.90;;;;;;5094039;28;20599;-68
2023/12/03 02:22:16;;;;;;;15.73;11.13;;;-4.30;99.90;;;;;;5094216;28;20192;-68
2023/12/03 02:24:44;;;;;;;16.37;11.60;;;-4.30;99.90;;;;;;5094104;28;20208;-68
2023/12/03 02:27:10;;;;;;;16.93;10.67;;;-4.30;99.90;;;;;;5094017;28;20203;-68
2023/12/03 02:29:37;;;;;;;16.50;11.10;;;-4.30;99.90;;;;;;5093792;28;20261;-68
2023/12/03 02:32:04;;;;;;;17.90;11.10;;;-4.30;99.90;;;;;;5093848;28;20200;-68
2023/12/03 02:34:31;;;;;;;15.67;11.20;;;-4.40;99.90;;;;;;5094031;28;20270;-68
2023/12/03 02:36:58;;;;;;;15.93;10.13;;;-4.40;99.90;;;;;;5093900;28;20204;-68
2023/12/03 02:39:24;;;;;;;17.97;11.27;;;-4.40;99.90;;;;;;5093688;28;20644;-68
2023/12/03 02:41:52;;;;;;;15.97;10.77;;;-4.40;99.90;;;;;;5093731;28;20246;-68
2023/12/03 02:44:19;;;;;;;15.50;11.00;;;-4.40;99.90;;;;;;5093709;28;20242;-68
2023/12/03 02:46:45;;;;;;;15.57;11.00;;;-4.40;99.90;;;;;;5093396;28;20744;-68
2023/12/03 02:49:12;;;;;;;16.27;10.30;;;-4.40;99.90;;;;;;5093785;28;20247;-67
2023/12/03 02:51:38;;;;;;;17.10;10.90;;;-4.40;99.90;;;;;;5093687;28;20201;-68
2023/12/03 02:54:05;;;;;;;15.43;10.47;;;-4.40;99.90;;;;;;5093715;28;20224;-68
2023/12/03 02:56:32;;;;;;;16.53;10.77;;;-4.40;99.90;;;;;;5093471;28;20196;-68
2023/12/03 02:59:00;;;;;;;18.57;12.37;;;-4.40;99.90;;;;;;5093308;28;20723;-69
2023/12/03 03:01:26;;;;;;;16.60;10.87;;;-4.40;99.90;;;;;;5093595;28;20205;-69
2023/12/03 03:03:53;;;;;;;16.60;11.13;;;-4.40;99.90;;;;;;5093489;28;20196;-68
2023/12/03 03:06:19;;;;;;;16.33;11.80;;;-4.40;99.90;;;;;;5093315;28;20220;-68
2023/12/03 03:08:46;;;;;;;17.13;11.13;;;-4.30;99.90;;;;;;5093373;28;20262;-67
2023/12/03 03:11:13;;;;;;;14.00;10.50;;;-4.40;99.90;;;;;;5093308;28;20242;-68
2023/12/03 03:13:39;;;;;;;16.57;11.50;;;-4.30;99.90;;;;;;5093080;28;20200;-68
2023/12/03 03:16:08;;;;;;;16.67;11.50;;;-4.30;99.90;;;;;;5093051;28;20271;-68
2023/12/03 03:18:35;;;;;;;17.63;11.43;;;-4.40;99.90;;;;;;5093419;28;20224;-68
2023/12/03 03:21:03;;;;;;;16.97;11.50;;;-4.40;99.90;;;;;;5093261;28;20262;-68
2023/12/03 03:23:29;;;;;;;15.87;11.10;;;-4.40;99.90;;;;;;5093152;28;20202;-68
2023/12/03 03:25:56;;;;;;;18.67;11.67;;;-4.50;99.90;;;;;;5093078;28;20224;-68
2023/12/03 03:28:22;;;;;;;16.77;11.33;;;-4.50;99.90;;;;;;5092914;28;20200;-68
2023/12/03 03:30:49;;;;;;;19.17;12.17;;;-4.50;99.90;;;;;;5093196;28;20222;-68
2023/12/03 03:33:17;;;;;;;16.70;11.77;;;-4.50;99.90;;;;;;5093096;28;20196;-68
2023/12/03 03:35:44;;;;;;;16.80;11.67;;;-4.60;99.90;;;;;;5093058;28;20196;-69
2023/12/03 03:38:10;;;;;;;17.20;11.00;;;-4.70;99.90;;;;;;5092926;28;20208;-68
2023/12/03 03:40:37;;;;;;;19.30;12.93;;;-4.80;99.90;;;;;;5092347;28;20200;-68
2023/12/03 03:43:03;;;;;;;16.87;11.33;;;-4.90;99.90;;;;;;5092774;28;20204;-68
2023/12/03 03:45:30;;;;;;;19.27;12.33;;;-4.90;99.90;;;;;;5092678;28;20679;-68
2023/12/03 03:47:57;;;;;;;18.20;12.27;;;-4.90;99.90;;;;;;5092959;28;20199;-68
2023/12/03 03:50:25;;;;;;;19.33;13.07;;;-5.00;99.90;;;;;;5092916;28;20192;-67
2023/12/03 03:52:51;;;;;;;19.50;12.30;;;-5.10;99.90;;;;;;5092851;28;20204;-67
2023/12/03 03:55:18;;;;;;;20.07;12.87;;;-5.10;99.90;;;;;;5092721;28;20200;-68
2023/12/03 03:57:44;;;;;;;20.03;12.80;;;-5.10;99.90;;;;;;5092567;28;20196;-68
2023/12/03 04:00:12;;;;;;;19.30;13.13;;;-5.20;99.90;;;;;;5092603;28;20200;-68
2023/12/03 04:02:39;;;;;;;23.53;13.63;;;-5.30;99.90;;;;;;5092591;28;20275;-68
2023/12/03 04:05:06;;;;;;;22.43;14.10;;;-5.30;99.90;;;;;;5092675;28;20730;-68
2023/12/03 04:07:34;;;;;;;22.63;13.73;;;-5.30;99.90;;;;;;5092541;28;20301;-68
2023/12/03 04:10:01;;;;;;;21.33;13.20;;;-5.30;99.90;;;;;;5092506;28;20200;-69
2023/12/03 04:12:28;;;;;;;21.53;13.53;;;-5.30;99.90;;;;;;5092709;28;20200;-69
2023/12/03 04:14:54;;;;;;;24.13;15.57;;;-5.30;99.90;;;;;;5092515;28;20253;-67
2023/12/03 04:17:21;;;;;;;23.67;15.30;;;-5.40;99.90;;;;;;5092417;28;20729;-68
2023/12/03 04:19:47;;;;;;;24.13;15.03;;;-5.50;99.90;;;;;;5092523;28;20254;-69
2023/12/03 04:22:14;;;;;;;22.00;14.80;;;-5.50;99.90;;;;;;5092469;28;20200;-68
2023/12/03 04:24:45;;;;;;;22.90;14.10;;;-5.60;99.90;;;;;;5092390;28;20204;-68
2023/12/03 04:27:11;;;;;;;22.43;13.97;;;-5.60;99.90;;;;;;5092572;28;20227;-69
2023/12/03 04:29:38;;;;;;;20.73;14.03;;;-5.60;99.90;;;;;;5092557;28;20567;-68
2023/12/03 04:32:06;;;;;;;22.20;14.43;;;-5.60;99.90;;;;;;5092560;28;20196;-67
2023/12/03 04:34:32;;;;;;;22.33;15.03;;;-5.70;99.90;;;;;;5092390;28;20231;-67
2023/12/03 04:36:59;;;;;;;26.77;16.27;;;-5.80;99.90;;;;;;5092259;28;20196;-68
2023/12/03 04:39:26;;;;;;;24.03;15.63;;;-5.80;99.90;;;;;;5092243;28;20645;-68
2023/12/03 04:41:54;;;;;;;25.50;15.10;;;-5.80;99.90;;;;;;5092506;28;20242;-68
2023/12/03 04:44:20;;;;;;;24.80;15.80;;;-5.90;99.90;;;;;;5092125;28;20717;-69
2023/12/03 04:46:48;;;;;;;23.13;15.00;;;-6.00;99.90;;;;;;5092145;28;20266;-69
2023/12/03 04:49:14;;;;;;;23.07;14.63;;;-6.10;99.90;;;;;;5092253;28;20241;-68
2023/12/03 04:51:41;;;;;;;22.83;14.90;;;-6.00;99.90;;;;;;5091995;28;20663;-69
2023/12/03 04:54:07;;;;;;;27.13;16.40;;;-6.10;99.90;;;;;;5094585;28;20197;-68
2023/12/03 04:56:34;;;;;;;25.93;15.83;;;-6.30;99.90;;;;;;5095859;28;20207;-69
2023/12/03 04:59:02;;;;;;;24.63;15.40;;;-6.40;99.90;;;;;;5095567;28;20713;-68
2023/12/03 05:01:29;;;;;;;24.13;15.23;;;-6.50;99.90;;;;;;5095788;28;20198;-69
2023/12/03 05:03:55;;;;;;;24.63;14.80;;;-6.50;99.90;;;;;;5095484;28;20660;-68
2023/12/03 05:06:22;;;;;;;23.80;15.30;;;-6.60;99.90;;;;;;5095294;28;20301;-68
2023/12/03 05:08:48;;;;;;;25.80;15.93;;;-6.50;99.90;;;;;;5095588;28;20192;-68
2023/12/03 05:11:15;;;;;;;24.80;15.73;;;-6.40;99.90;;;;;;5095345;28;20713;-68
2023/12/03 05:13:42;;;;;;;24.87;15.87;;;-6.30;99.90;;;;;;5095592;28;20204;-68
2023/12/03 05:16:11;;;;;;;28.90;16.33;;;-6.20;99.90;;;;;;5095286;28;20234;-68
2023/12/03 05:18:37;;;;;;;28.53;16.50;;;-6.10;99.90;;;;;;5095296;28;20200;-68
2023/12/03 05:21:04;;;;;;;26.20;15.60;;;-6.10;99.90;;;;;;5095414;28;20273;-68
2023/12/03 05:23:31;;;;;;;29.33;17.03;;;-6.20;99.90;;;;;;5095351;28;20312;-69
2023/12/03 05:25:58;;;;;;;27.93;17.27;;;-6.20;99.90;;;;;;5095100;28;20200;-68
2023/12/03 05:28:24;;;;;;;27.03;16.83;;;-6.30;99.90;;;;;;5095235;28;20271;-68
2023/12/03 05:30:51;;;;;;;30.30;17.17;;;-6.40;99.90;;;;;;5095118;28;20223;-68
2023/12/03 05:33:19;;;;;;;28.80;17.10;;;-6.40;99.90;;;;;;5094859;28;20204;-68
2023/12/03 05:35:45;;;;;;;28.93;17.37;;;-6.50;99.90;;;;;;5095144;28;20192;-69
2023/12/03 05:38:12;;;;;;;26.67;16.60;;;-6.50;99.90;;;;;;5095039;28;20196;-68
2023/12/03 05:40:39;;;;;;;30.30;17.00;;;-6.50;99.90;;;;;;5094877;28;20334;-68
2023/12/03 05:43:05;;;;;;;28.53;17.23;;;-6.60;99.90;;;;;;5094893;28;20200;-68
2023/12/03 05:45:32;;;;;;;33.30;17.80;;;-6.50;99.90;;;;;;5094728;28;20261;-68
2023/12/03 05:47:58;;;;;;;32.27;19.17;;;-6.50;99.90;;;;;;5094532;28;20220;-69
2023/12/03 05:50:26;;;;;;;30.90;17.40;;;-6.40;99.90;;;;;;5094949;28;20228;-68
2023/12/03 05:52:53;;;;;;;36.13;19.77;;;-6.40;99.90;;;;;;5094597;28;20541;-68
2023/12/03 05:55:20;;;;;;;32.50;19.03;;;-6.30;99.90;;;;;;5094691;28;20242;-68
2023/12/03 05:57:47;;;;;;;110.03;49.57;;;-6.10;99.90;;;;;;5094526;28;20201;-68
2023/12/03 06:00:14;;;;;;;40.17;21.80;;;-6.10;99.90;;;;;;5094448;28;20720;-69
2023/12/03 06:02:42;;;;;;;35.23;20.10;;;-6.10;99.90;;;;;;5094315;28;20249;-68
2023/12/03 06:05:09;;;;;;;42.10;23.47;;;-6.10;99.90;;;;;;5094110;28;20222;-67
2023/12/03 06:07:37;;;;;;;48.23;26.57;;;-6.10;99.90;;;;;;5094437;28;20269;-68
2023/12/03 06:10:05;;;;;;;32.60;19.87;;;-6.20;99.90;;;;;;5094206;28;20581;-68
2023/12/03 06:12:31;;;;;;;33.57;19.20;;;-6.20;99.90;;;;;;5094029;28;20288;-67
2023/12/03 06:14:58;;;;;;;36.40;20.27;;;-6.30;99.90;;;;;;5093973;28;20238;-68
2023/12/03 06:17:25;;;;;;;35.90;19.53;;;-6.30;99.90;;;;;;5094114;28;20700;-67
2023/12/03 06:19:51;;;;;;;35.27;19.63;;;-6.50;99.90;;;;;;5094260;28;20199;-67
2023/12/03 06:22:18;;;;;;;34.70;19.27;;;-6.40;99.90;;;;;;5094127;28;20644;-67
2023/12/03 06:24:46;;;;;;;40.40;19.20;;;-6.60;99.90;;;;;;5094107;28;20264;-67
2023/12/03 06:27:12;;;;;;;34.77;19.13;;;-6.60;99.90;;;;;;5093896;28;20280;-68
2023/12/03 06:29:39;;;;;;;31.67;18.73;;;-6.50;99.90;;;;;;5093822;28;20207;-68
2023/12/03 06:32:06;;;;;;;39.20;21.43;;;-6.50;99.90;;;;;;5093848;28;20660;-68
2023/12/03 06:34:33;;;;;;;115.50;38.97;;;-6.70;99.90;;;;;;5093910;28;20252;-68
2023/12/03 06:36:59;;;;;;;53.00;23.93;;;-6.70;99.90;;;;;;5093726;28;20525;-69
2023/12/03 06:39:26;;;;;;;46.03;22.23;;;-6.80;99.90;;;;;;5093746;28;20206;-68
2023/12/03 06:41:54;;;;;;;39.47;20.87;;;-6.90;99.90;;;;;;5093838;28;20196;-68
2023/12/03 06:44:21;;;;;;;36.03;18.90;;;-6.90;99.90;;;;;;5093656;28;20202;-69
2023/12/03 06:46:47;;;;;;;34.13;18.87;;;-7.00;99.90;;;;;;5093556;28;20280;-68
2023/12/03 06:49:14;;;;;;;36.10;19.17;;;-7.00;99.90;;;;;;5093639;28;20199;-69
2023/12/03 06:51:40;;;;;;;37.07;19.80;;;-7.10;99.90;;;;;;5093541;28;20196;-69
2023/12/03 06:54:07;;;;;;;32.53;18.67;;;-7.20;99.90;;;;;;5093423;28;20207;-69
2023/12/03 06:56:34;;;;;;;382.80;134.23;;;-7.20;99.90;;;;;;5093346;28;20200;-69
2023/12/03 06:59:02;;;;;;;63.63;35.57;;;-7.10;99.90;;;;;;5093595;28;20203;-68
2023/12/03 07:01:29;;;;;;;42.10;23.70;;;-7.00;99.90;;;;;;5093332;28;20859;-69
2023/12/03 07:03:55;;;;;;;48.33;25.53;;;-6.90;99.90;;;;;;5093394;28;20202;-69
2023/12/03 07:06:22;;;;;;;42.10;23.40;;;-6.80;99.90;;;;;;5093281;28;20200;-68
2023/12/03 07:08:48;;;;;;;41.03;22.83;;;-6.70;99.90;;;;;;5093206;28;20200;-69
2023/12/03 07:11:15;;;;;;;42.47;21.37;;;-6.50;99.90;;;;;;5093057;28;20539;-69
2023/12/03 07:13:43;;;;;;;42.00;22.10;;;-6.40;99.90;;;;;;5093289;28;20203;-69
2023/12/03 07:16:11;;;;;;;40.63;22.87;;;-6.40;99.90;;;;;;5092310;28;20232;-69
2023/12/03 07:18:41;;;;;;;38.60;21.93;;;-6.30;99.90;;;;;;5092987;28;20713;-69
2023/12/03 07:21:09;;;;;;;39.60;21.60;;;-6.30;99.90;;;;;;5093079;28;20196;-69
2023/12/03 07:23:36;;;;;;;39.20;22.57;;;-6.20;99.90;;;;;;5093020;28;20725;-69
2023/12/03 07:26:09;;;;;;;51.73;30.60;;;-6.20;99.90;;;;;;5092948;28;20253;-68
2023/12/03 07:28:35;;;;;;;54.13;32.73;;;-6.20;99.90;;;;;;5093094;28;20634;-68
2023/12/03 07:31:03;;;;;;;37.67;21.87;;;-6.20;99.90;;;;;;5093103;28;20203;-69
2023/12/03 07:33:31;;;;;;;34.13;20.57;;;-6.20;99.90;;;;;;5093007;28;20192;-69
2023/12/03 07:35:58;;;;;;;36.10;20.20;;;-6.20;99.90;;;;;;5093142;28;20654;-68
2023/12/03 07:38:24;;;;;;;38.83;21.23;;;-6.20;99.90;;;;;;5092797;28;20237;-69
2023/12/03 07:40:51;;;;;;;35.60;20.67;;;-6.20;99.90;;;;;;5093056;28;20196;-68
2023/12/03 07:43:18;;;;;;;37.67;21.23;;;-6.20;99.90;;;;;;5093019;28;20200;-68
2023/12/03 07:45:44;;;;;;;35.63;19.73;;;-6.20;99.90;;;;;;5092866;28;20265;-67
2023/12/03 07:48:11;;;;;;;37.77;20.73;;;-6.10;99.90;;;;;;5092336;28;20687;-67
2023/12/03 07:50:39;;;;;;;34.13;20.10;;;-6.10;99.90;;;;;;5092748;28;20203;-68
2023/12/03 07:53:05;;;;;;;39.53;20.67;;;-6.00;99.90;;;;;;5092626;28;20196;-68
2023/12/03 07:55:33;;;;;;;38.20;20.67;;;-5.90;99.90;;;;;;5092942;28;20245;-67
2023/12/03 07:57:59;;;;;;;39.07;19.97;;;-5.90;99.90;;;;;;5092921;28;20842;-68
2023/12/03 08:00:26;;;;;;;35.50;19.30;;;-5.80;99.90;;;;;;5092659;28;20253;-67
2023/12/03 08:02:53;;;;;;;35.27;19.53;;;-5.60;99.90;;;;;;5092643;28;20195;-67
2023/12/03 08:05:19;;;;;;;37.33;19.93;;;-5.60;99.90;;;;;;5092603;28;20226;-67
2023/12/03 08:07:47;;;;;;;40.53;21.23;;;-5.50;99.90;;;;;;5092414;28;20319;-67
2023/12/03 08:10:14;;;;;;;34.83;19.77;;;-5.40;99.90;;;;;;5092590;28;20594;-67
2023/12/03 08:12:40;;;;;;;38.43;20.93;;;-5.20;99.90;;;;;;5092381;28;20652;-67
2023/12/03 08:15:07;;;;;;;35.40;19.40;;;-5.20;99.90;;;;;;5092685;28;20240;-67
2023/12/03 08:17:34;;;;;;;33.70;19.47;;;-5.10;99.90;;;;;;5092591;28;20200;-67
2023/12/03 08:20:01;;;;;;;28.93;17.60;;;-5.00;99.90;;;;;;5092380;28;20200;-68
2023/12/03 08:22:27;;;;;;;32.83;19.67;;;-4.70;99.90;;;;;;5092243;28;20655;-68
2023/12/03 08:24:55;;;;;;;33.03;18.37;;;-4.60;99.90;;;;;;5092494;28;20258;-68
2023/12/03 08:27:22;;;;;;;31.47;19.20;;;-4.40;99.90;;;;;;5093679;28;20580;-67
2023/12/03 08:29:48;;;;;;;29.47;17.77;;;-4.40;99.90;;;;;;5096339;28;20589;-69
2023/12/03 08:32:15;;;;;;;28.17;17.40;;;-4.30;99.90;;;;;;5096217;28;20226;-68
2023/12/03 08:34:42;;;;;;;31.97;19.10;;;-4.00;99.90;;;;;;5096064;28;20208;-69
2023/12/03 08:37:08;;;;;;;26.83;16.50;;;-3.90;99.90;;;;;;5096402;28;20202;-68
2023/12/03 08:39:35;;;;;;;25.03;15.57;;;-3.80;99.90;;;;;;5096228;28;20194;-68
2023/12/03 08:42:04;;;;;;;27.97;17.07;;;-3.90;99.90;;;;;;5096124;28;20546;-68
2023/12/03 08:44:32;;;;;;;25.60;16.23;;;-4.10;99.90;;;;;;5096015;28;20242;-69
2023/12/03 08:46:59;;;;;;;25.97;20.17;;;-4.00;99.90;;;;;;5095730;28;20239;-69
2023/12/03 08:49:26;;;;;;;27.13;18.63;;;-3.80;99.90;;;;;;5096062;28;20209;-69
2023/12/03 08:51:53;;;;;;;26.07;15.97;;;-3.80;99.90;;;;;;5095935;28;20273;-68
2023/12/03 08:54:20;;;;;;;23.67;14.70;;;-3.60;99.90;;;;;;5095889;28;20252;-68
2023/12/03 08:56:46;;;;;;;25.70;15.80;;;-3.80;99.90;;;;;;5095812;28;20196;-68
2023/12/03 08:59:14;;;;;;;37.50;23.87;;;-3.60;99.90;;;;;;5095752;28;20250;-68
2023/12/03 09:01:41;;;;;;;23.00;15.10;;;-3.30;99.90;;;;;;5095567;28;20201;-67
2023/12/03 09:04:07;;;;;;;22.10;14.10;;;-3.20;99.90;;;;;;5095574;28;20196;-68
2023/12/03 09:06:34;;;;;;;22.77;14.07;;;-3.20;99.90;;;;;;5095694;28;20204;-68
2023/12/03 09:09:01;;;;;;;21.00;13.77;;;-3.30;99.90;;;;;;5095516;28;20232;-69
2023/12/03 09:11:28;;;;;;;19.97;13.43;;;-3.30;99.90;;;;;;5095474;28;20246;-67
2023/12/03 09:13:54;;;;;;;20.67;13.73;;;-3.20;99.90;;;;;;5095361;28;20250;-69
2023/12/03 09:16:22;;;;;;;19.83;13.53;;;-3.00;99.90;;;;;;5095269;28;20694;-78
2023/12/03 09:18:49;;;;;;;20.23;13.23;;;-3.00;99.90;;;;;;5095531;28;20196;-68
2023/12/03 09:21:16;;;;;;;20.20;12.73;;;-2.70;99.90;;;;;;5095585;28;20242;-69
2023/12/03 09:23:44;;;;;;;20.87;14.40;;;-2.70;99.90;;;;;;5095368;28;20196;-69
2023/12/03 09:26:10;;;;;;;17.50;12.47;;;-2.50;99.90;;;;;;5095313;28;20200;-68
2023/12/03 09:28:37;;;;;;;18.77;13.20;;;-2.50;99.90;;;;;;5095060;28;20232;-68
2023/12/03 09:31:04;;;;;;;20.10;13.10;;;-2.70;99.90;;;;;;5095022;28;20608;-69
2023/12/03 09:33:32;;;;;;;20.33;14.10;;;-2.60;99.90;;;;;;5095120;28;20655;-68
2023/12/03 09:35:58;;;;;;;18.93;12.53;;;-2.50;99.90;;;;;;5095223;28;20196;-70
2023/12/03 09:38:25;;;;;;;31.00;20.07;;;-2.40;99.90;;;;;;5094350;28;20201;-69
2023/12/03 09:40:56;;;;;;;44.20;29.27;;;-2.30;99.90;;;;;;5094790;28;20656;-69
2023/12/03 09:43:23;;;;;;;16.83;12.07;;;-2.30;99.90;;;;;;5094878;28;20197;-70
2023/12/03 09:45:50;;;;;;;36.93;25.03;;;-2.00;99.90;;;;;;5095103;28;20285;-68
2023/12/03 09:48:20;;;;;;;16.33;12.07;;;-1.70;99.90;;;;;;5094059;28;20228;-69
2023/12/03 09:50:49;;;;;;;355.70;204.30;;;-1.50;99.90;;;;;;5093100;28;20190;-69
2023/12/03 09:53:18;;;;;;;19.57;14.43;;;-1.20;99.90;;;;;;5094668;28;20266;-70
2023/12/03 09:55:45;;;;;;;16.00;12.30;;;-0.90;99.90;;;;;;5094288;28;20190;-70
2023/12/03 09:58:15;;;;;;;15.73;12.13;;;-1.10;99.90;;;;;;5094812;28;20202;-69
2023/12/03 10:00:42;;;;;;;18.67;13.97;;;-1.30;99.90;;;;;;5094453;28;20208;-70
2023/12/03 10:03:09;;;;;;;18.10;12.87;;;-1.10;99.90;;;;;;5094499;28;20196;-68
2023/12/03 10:05:35;;;;;;;15.40;11.53;;;-1.30;99.90;;;;;;5094383;28;20228;-70
2023/12/03 10:08:04;;;;;;;17.17;11.83;;;-1.20;99.90;;;;;;5094375;28;20252;-69
2023/12/03 10:10:32;;;;;;;15.23;11.03;;;-1.10;99.90;;;;;;5094297;28;20193;-69
2023/12/03 10:13:00;;;;;;;16.43;11.57;;;-1.00;99.90;;;;;;5094445;28;20203;-69
2023/12/03 10:15:26;;;;;;;15.23;11.00;;;-0.40;99.90;;;;;;5094117;28;20230;-70
2023/12/03 10:17:53;;;;;;;15.23;10.33;;;0.00;99.90;;;;;;5094033;28;20207;-68
2023/12/03 10:20:26;;;;;;;14.63;11.43;;;0.30;99.90;;;;;;5094056;28;20236;-70
2023/12/03 10:22:53;;;;;;;14.73;11.30;;;0.60;99.90;;;;;;5093942;28;20235;-69
2023/12/03 10:25:29;;;;;;;19.57;13.30;;;0.80;99.90;;;;;;5094164;28;20204;-70
2023/12/03 10:27:56;;;;;;;14.30;11.37;;;1.40;99.90;;;;;;5093981;28;20223;-70
2023/12/03 10:30:24;;;;;;;18.40;13.10;;;1.30;99.90;;;;;;5091135;28;20624;-70
2023/12/03 10:32:50;;;;;;;21.70;15.67;;;1.80;99.90;;;;;;5090652;28;20203;-69
2023/12/03 10:35:19;;;;;;;17.13;12.90;;;2.80;99.90;;;;;;5090033;28;20253;-70
2023/12/03 10:37:46;;;;;;;15.03;11.67;;;3.70;99.90;;;;;;5090514;28;20200;-68
2023/12/03 10:40:13;;;;;;;18.50;13.77;;;4.00;99.90;;;;;;5090406;28;20659;-69
2023/12/03 10:42:41;;;;;;;17.60;13.90;;;3.80;99.90;;;;;;5090412;28;20200;-69
2023/12/03 10:45:09;;;;;;;23.17;20.07;;;3.50;99.90;;;;;;5090491;28;20200;-70
2023/12/03 10:47:38;;;;;;;15.60;11.57;;;4.50;99.90;;;;;;5089800;28;20258;-70
2023/12/03 10:50:07;;;;;;;17.00;13.93;;;4.20;98.00;;;;;;5090208;28;20199;-70
2023/12/03 10:52:36;;;;;;;19.43;15.33;;;5.20;98.40;;;;;;5090396;28;20271;-70
2023/12/03 10:55:03;;;;;;;14.00;11.67;;;6.20;96.40;;;;;;5090287;28;20725;-70
2023/12/03 10:57:31;;;;;;;12.97;11.00;;;5.70;93.10;;;;;;5090138;28;20257;-70
2023/12/03 11:00:03;;;;;;;14.73;12.73;;;5.20;93.20;;;;;;5090046;28;20196;-70
2023/12/03 11:02:34;;;;;;;17.80;12.30;;;5.40;93.80;;;;;;5090104;28;20230;-68
2023/12/03 11:05:05;;;;;;;16.37;12.50;;;4.60;93.80;;;;;;5090023;28;20235;-69
2023/12/03 11:07:33;;;;;;;15.67;13.60;;;5.00;93.60;;;;;;5090042;28;20553;-69
2023/12/03 11:10:00;;;;;;;15.23;12.63;;;6.20;93.00;;;;;;5090016;28;20196;-69
2023/12/03 11:12:27;;;;;;;15.03;12.90;;;6.20;91.00;;;;;;5090051;28;20253;-69
2023/12/03 11:14:54;;;;;;;15.63;13.50;;;7.40;90.60;;;;;;5089559;28;20208;-69
2023/12/03 11:17:28;;;;;;;14.00;12.37;;;7.30;87.00;;;;;;5090045;28;20204;-69
2023/12/03 11:19:58;;;;;;;14.47;12.93;;;6.60;85.30;;;;;;5090165;28;20199;-69
2023/12/03 11:22:39;;;;;;;15.53;13.83;;;7.20;86.20;;;;;;5089611;28;20201;-70
2023/12/03 11:25:11;;;;;;;15.43;13.00;;;7.60;85.10;;;;;;5089759;28;20196;-68
2023/12/03 11:27:42;;;;;;;19.50;14.43;;;6.20;80.70;;;;;;5089528;28;20207;-69
2023/12/03 11:30:09;;;;;;;15.17;12.27;;;6.40;81.30;;;;;;5090089;28;20203;-69
2023/12/03 11:32:38;;;;;;;20.80;15.13;;;6.80;81.60;;;;;;5089816;28;20204;-70
2023/12/03 11:35:07;;;;;;;15.77;13.17;;;7.10;80.50;;;;;;5089397;28;20204;-68
2023/12/03 11:37:33;;;;;;;14.40;12.83;;;7.40;80.80;;;;;;5090039;28;20682;-68
2023/12/03 11:40:08;;;;;;;18.17;14.63;;;7.30;78.70;;;;;;5089566;28;20216;-69
2023/12/03 11:42:42;;;;;;;16.23;13.73;;;7.60;76.00;;;;;;5089712;28;20231;-69
2023/12/03 11:45:21;;;;;;;23.10;17.07;;;7.60;75.00;;;;;;5090657;28;20249;-69
2023/12/03 11:50:43;;;;;;;24.83;19.53;;;7.70;73.60;;;;;;5090401;27;20623;-69
2023/12/03 11:53:12;;;;;;;16.43;12.47;;;7.10;77.40;;;;;;5090327;28;20200;-68
2023/12/03 11:55:41;;;;;;;19.83;16.10;;;6.60;73.30;;;;;;5090399;28;20230;-67
2023/12/03 11:58:09;;;;;;;16.17;13.57;;;6.20;74.80;;;;;;5090225;28;20725;-68
2023/12/03 12:00:36;;;;;;;16.23;13.13;;;6.20;74.70;;;;;;5090079;28;20541;-69
2023/12/03 12:03:04;;;;;;;16.03;13.00;;;6.90;73.90;;;;;;5089974;28;20261;-69
2023/12/03 12:05:31;;;;;;;41.30;34.60;;;6.40;76.40;;;;;;5089933;28;20552;-68
2023/12/03 12:08:01;;;;;;;16.37;13.17;;;7.40;75.80;;;;;;5090158;28;20196;-69
2023/12/03 12:10:27;;;;;;;17.47;15.03;;;7.80;72.80;;;;;;5090045;28;20224;-69
2023/12/03 12:12:55;;;;;;;16.03;13.87;;;8.00;70.40;;;;;;5089866;28;20712;-69
2023/12/03 12:15:22;;;;;;;18.03;15.43;;;8.30;70.00;;;;;;5089869;28;20197;-69
2023/12/03 12:17:49;;;;;;;17.97;16.07;;;7.30;69.90;;;;;;5090001;28;20249;-68
2023/12/03 12:20:23;;;;;;;15.23;12.57;;;8.20;70.30;;;;;;5089879;28;20234;-68
2023/12/03 12:22:50;;;;;;;16.43;14.73;;;7.50;68.50;;;;;;5089718;28;20204;-68
2023/12/03 12:25:19;;;;;;;14.37;12.87;;;7.50;71.60;;;;;;5089661;28;20199;-69
2023/12/03 12:27:46;;;;;;;16.63;12.80;;;8.20;67.10;;;;;;5089576;28;20586;-69
2023/12/03 12:30:14;;;;;;;16.67;13.67;;;8.30;65.20;;;;;;5089353;28;20240;-69